Time;durP1;ratioP1;P1;durP2;ratioP2;P2;SDS_P1;SDS_P2;PMS_P1;PMS_P2;Temp;Humidity;BMP_temperature;BMP_pressure;BME280_temperature;BME280_humidity;BME280_pressure;Samples;Min_cycle;Max_cycle;Signal;HPM_P1;HPM_P2
2022/08/17 00:00:20;;;;;;;4.63;4.33;;;26.90;47.00;;;;;;5033081;28;20457;-68
2022/08/17 00:03:14;;;;;;;3.60;3.40;;;26.90;47.00;;;;;;5021696;28;20487;-68
2022/08/17 00:05:46;;;;;;;4.60;4.30;;;26.90;47.00;;;;;;5033927;28;21001;-68
2022/08/17 00:08:16;;;;;;;4.10;3.73;;;26.90;47.00;;;;;;5031109;28;20474;-68
2022/08/17 00:10:46;;;;;;;4.27;3.97;;;26.90;47.10;;;;;;5028266;28;20459;-69
2022/08/17 00:13:17;;;;;;;4.40;4.10;;;26.90;47.00;;;;;;5025965;28;20493;-68
2022/08/17 00:15:46;;;;;;;4.70;4.40;;;26.90;47.10;;;;;;5028110;28;20438;-68
2022/08/17 00:18:17;;;;;;;4.47;4.07;;;26.90;47.00;;;;;;5023701;28;20849;-68
2022/08/17 00:21:08;;;;;;;4.53;4.13;;;26.90;47.00;;;;;;5033118;28;20534;-68
2022/08/17 00:23:39;;;;;;;4.17;3.87;;;26.80;46.90;;;;;;5029105;28;20865;-68
2022/08/17 00:26:16;;;;;;;5.03;4.73;;;26.90;47.00;;;;;;5037988;28;20596;-68
2022/08/17 00:29:07;;;;;;;4.87;4.47;;;26.90;47.00;;;;;;5035348;28;21015;-68
2022/08/17 00:31:36;;;;;;;4.27;3.90;;;26.90;47.20;;;;;;5035838;28;20521;-68
2022/08/17 00:34:07;;;;;;;4.50;4.17;;;26.80;47.00;;;;;;5028245;28;20977;-68
2022/08/17 00:36:36;;;;;;;4.83;4.53;;;26.80;47.00;;;;;;5028068;28;20768;-68
2022/08/17 00:39:05;;;;;;;3.73;3.53;;;26.80;47.00;;;;;;5020634;28;20814;-68
2022/08/17 00:41:34;;;;;;;4.57;4.27;;;26.90;47.10;;;;;;5045394;28;20482;-68
2022/08/17 00:44:08;;;;;;;4.63;4.20;;;26.80;47.00;;;;;;5030565;28;20481;-68
2022/08/17 00:46:39;;;;;;;5.10;4.60;;;26.80;47.00;;;;;;5038140;28;20431;-68
2022/08/17 00:49:12;;;;;;;5.37;4.97;;;26.80;47.10;;;;;;5030487;28;21496;-68
2022/08/17 00:51:45;;;;;;;4.50;4.20;;;26.80;47.10;;;;;;5027607;28;20467;-68
2022/08/17 00:54:18;;;;;;;4.33;3.93;;;26.80;47.00;;;;;;5040785;28;20471;-68
2022/08/17 00:56:56;;;;;;;3.90;3.60;;;26.80;47.10;;;;;;5045283;28;20474;-68
2022/08/17 00:59:30;;;;;;;4.40;4.10;;;26.80;47.00;;;;;;5024751;28;20449;-68
2022/08/17 01:01:59;;;;;;;4.57;4.10;;;26.80;47.20;;;;;;5033955;28;20822;-68
2022/08/17 01:04:31;;;;;;;5.37;4.83;;;26.80;47.20;;;;;;5037476;28;21016;-67
2022/08/17 01:07:03;;;;;;;4.77;4.37;;;26.80;47.00;;;;;;5025737;28;20479;-67
2022/08/17 01:09:32;;;;;;;6.40;5.90;;;26.80;47.10;;;;;;5023204;28;20467;-68
2022/08/17 01:12:01;;;;;;;6.20;5.80;;;26.80;47.00;;;;;;5026221;28;20902;-68
2022/08/17 01:14:29;;;;;;;6.00;5.50;;;26.80;47.00;;;;;;5042710;28;20466;-68
2022/08/17 01:16:59;;;;;;;5.40;5.00;;;26.80;48.20;;;;;;5027796;28;20887;-68
2022/08/17 01:19:34;;;;;;;5.07;4.57;;;26.80;47.10;;;;;;5029895;28;20449;-68
2022/08/17 01:22:17;;;;;;;4.53;4.23;;;26.80;47.00;;;;;;5044781;28;20501;-68
2022/08/17 01:24:48;;;;;;;4.70;4.37;;;26.80;47.10;;;;;;5044430;28;20850;-67
2022/08/17 01:27:17;;;;;;;5.00;4.63;;;26.80;47.10;;;;;;5041857;28;20478;-68
2022/08/17 01:29:57;;;;;;;5.67;5.17;;;26.80;47.10;;;;;;5031472;28;20436;-68
2022/08/17 01:32:27;;;;;;;5.30;4.90;;;26.80;47.00;;;;;;5043360;28;21152;-68
2022/08/17 01:34:56;;;;;;;5.60;5.10;;;26.80;47.00;;;;;;5012827;28;20953;-68
2022/08/17 01:37:31;;;;;;;4.13;3.87;;;26.80;47.10;;;;;;5029828;28;20482;-67
2022/08/17 01:40:06;;;;;;;5.50;5.10;;;26.80;47.10;;;;;;5028226;28;20430;-67
2022/08/17 01:42:39;;;;;;;5.47;5.07;;;26.80;47.00;;;;;;5026376;28;20458;-68
2022/08/17 01:45:11;;;;;;;5.37;4.97;;;26.80;47.10;;;;;;5028981;28;20449;-68
2022/08/17 01:47:40;;;;;;;5.00;4.60;;;26.80;47.20;;;;;;5041468;28;20507;-67
2022/08/17 01:50:14;;;;;;;5.30;4.90;;;26.80;47.20;;;;;;5044256;28;20791;-68
2022/08/17 01:52:45;;;;;;;4.90;4.50;;;26.80;47.20;;;;;;5042565;28;20501;-68
2022/08/17 01:55:16;;;;;;;5.00;4.50;;;26.80;47.30;;;;;;5038943;28;20538;-67
2022/08/17 01:57:45;;;;;;;5.70;5.20;;;26.80;47.20;;;;;;5022073;28;20832;-68
2022/08/17 02:00:14;;;;;;;6.07;5.57;;;26.80;47.20;;;;;;5034143;28;20520;-68
2022/08/17 02:02:44;;;;;;;5.50;5.10;;;26.80;47.20;;;;;;5035195;28;20503;-68
2022/08/17 02:05:13;;;;;;;4.67;4.37;;;26.80;47.20;;;;;;5033162;28;20450;-68
2022/08/17 02:07:41;;;;;;;5.63;5.13;;;26.80;47.20;;;;;;5039820;28;20562;-68
2022/08/17 02:10:31;;;;;;;4.83;4.43;;;26.70;47.20;;;;;;5037509;28;20528;-68
2022/08/17 02:13:02;;;;;;;5.83;5.10;;;26.80;47.30;;;;;;5024111;28;20456;-67
2022/08/17 02:15:30;;;;;;;6.20;5.70;;;26.80;47.20;;;;;;5049849;28;20541;-68
2022/08/17 02:17:59;;;;;;;5.90;5.40;;;26.80;47.20;;;;;;5043775;28;20468;-68
2022/08/17 02:20:30;;;;;;;5.20;4.80;;;26.80;47.20;;;;;;5034217;28;20450;-68
2022/08/17 02:23:12;;;;;;;5.67;5.27;;;26.70;47.20;;;;;;5035988;28;20536;-68
2022/08/17 02:25:44;;;;;;;6.13;5.63;;;26.70;47.20;;;;;;5044604;28;20445;-67
2022/08/17 02:28:14;;;;;;;5.77;5.37;;;26.70;47.20;;;;;;5024806;28;20487;-71
2022/08/17 02:30:43;;;;;;;5.37;4.97;;;26.70;47.20;;;;;;5035832;28;20435;-71
2022/08/17 02:33:30;;;;;;;5.33;4.93;;;26.70;47.20;;;;;;5030602;28;20463;-71
2022/08/17 02:36:11;;;;;;;5.80;5.40;;;26.70;47.20;;;;;;5038532;28;20455;-71
2022/08/17 02:38:41;;;;;;;5.40;5.00;;;26.70;47.10;;;;;;5031401;28;20467;-71
2022/08/17 02:41:11;;;;;;;4.87;4.57;;;26.70;47.20;;;;;;5058721;28;20474;-71
2022/08/17 02:43:40;;;;;;;5.63;5.13;;;26.70;47.20;;;;;;5040877;28;20474;-71
2022/08/17 02:46:11;;;;;;;6.03;5.60;;;26.70;47.30;;;;;;5034472;28;20508;-71
2022/08/17 02:48:39;;;;;;;5.27;4.87;;;26.70;47.30;;;;;;5025814;28;20476;-71
2022/08/17 02:51:08;;;;;;;5.50;5.10;;;26.70;47.30;;;;;;5055726;28;20446;-71
2022/08/17 02:53:36;;;;;;;5.50;5.10;;;26.70;47.30;;;;;;5031927;28;20860;-71
2022/08/17 02:56:05;;;;;;;5.33;4.93;;;26.70;47.50;;;;;;5034529;28;20419;-71
2022/08/17 02:58:35;;;;;;;5.27;4.87;;;26.70;47.20;;;;;;5051755;28;20888;-71
2022/08/17 03:01:04;;;;;;;6.00;5.50;;;26.70;47.40;;;;;;5035621;28;20435;-71
2022/08/17 03:03:33;;;;;;;6.00;5.00;;;26.70;47.30;;;;;;5049052;28;21032;-71
2022/08/17 03:06:02;;;;;;;5.03;4.63;;;26.70;47.30;;;;;;5039152;28;20481;-71
2022/08/17 03:08:31;;;;;;;6.37;5.80;;;26.70;47.20;;;;;;5034523;28;20482;-71
2022/08/17 03:10:59;;;;;;;5.73;5.23;;;26.70;47.40;;;;;;5056336;28;20443;-71
2022/08/17 03:13:29;;;;;;;5.67;5.27;;;26.70;47.30;;;;;;5029313;28;21067;-71
2022/08/17 03:15:59;;;;;;;5.63;5.20;;;26.70;47.30;;;;;;5033238;28;20443;-71
2022/08/17 03:18:27;;;;;;;6.10;5.60;;;26.70;47.30;;;;;;5030975;28;20475;-71
2022/08/17 03:20:58;;;;;;;5.90;5.40;;;26.70;47.40;;;;;;5022008;28;20459;-71
2022/08/17 03:23:27;;;;;;;5.60;5.20;;;26.70;47.50;;;;;;5023420;28;20474;-71
2022/08/17 03:25:58;;;;;;;5.70;5.20;;;26.70;47.50;;;;;;5033654;28;20447;-71
2022/08/17 03:28:28;;;;;;;6.50;5.67;;;26.70;47.50;;;;;;5030053;28;20474;-71
2022/08/17 03:30:56;;;;;;;5.63;5.23;;;26.70;47.40;;;;;;5033230;28;20529;-71
2022/08/17 03:33:26;;;;;;;5.90;5.40;;;26.70;47.50;;;;;;5034778;28;20475;-71
2022/08/17 03:35:54;;;;;;;5.27;4.87;;;26.70;47.40;;;;;;5029794;28;20810;-71
2022/08/17 03:38:23;;;;;;;6.23;5.73;;;26.70;47.50;;;;;;5030266;28;20462;-71
2022/08/17 03:40:53;;;;;;;5.80;5.40;;;26.60;47.30;;;;;;5033530;28;20436;-71
2022/08/17 03:43:30;;;;;;;5.90;5.50;;;26.60;47.40;;;;;;5026011;28;21040;-71
2022/08/17 03:57:20;;;;;;;5.60;5.17;;;26.60;47.50;;;;;;5023686;28;20447;-71
2022/08/17 03:59:49;;;;;;;5.80;5.40;;;26.60;47.40;;;;;;5027164;28;20458;-71
2022/08/17 04:02:21;;;;;;;5.87;5.40;;;26.60;47.40;;;;;;5034424;28;20463;-71
2022/08/17 04:04:51;;;;;;;5.67;5.27;;;26.60;47.50;;;;;;5036361;28;20449;-71
2022/08/17 04:07:20;;;;;;;5.23;4.93;;;26.60;47.50;;;;;;5036337;28;20792;-71
2022/08/17 04:09:49;;;;;;;6.50;6.00;;;26.60;47.50;;;;;;5036448;28;20447;-71
2022/08/17 04:12:20;;;;;;;5.70;5.30;;;26.60;47.50;;;;;;5029781;28;20474;-71
2022/08/17 04:14:48;;;;;;;5.03;4.63;;;26.60;47.40;;;;;;5031619;28;21021;-71
2022/08/17 04:17:23;;;;;;;5.93;5.53;;;26.60;47.50;;;;;;5018060;28;20484;-71
2022/08/17 04:19:54;;;;;;;6.40;5.90;;;26.60;47.50;;;;;;5040097;28;20457;-71
2022/08/17 04:22:23;;;;;;;5.80;5.40;;;26.60;47.40;;;;;;5029815;28;20616;-71
2022/08/17 04:25:04;;;;;;;5.23;4.73;;;26.60;47.40;;;;;;5023090;28;20528;-71
2022/08/17 04:27:33;;;;;;;5.90;5.27;;;26.60;48.70;;;;;;5039426;28;20475;-71
2022/08/17 04:30:01;;;;;;;5.97;5.57;;;26.60;47.50;;;;;;5032941;28;21015;-71
2022/08/17 04:32:30;;;;;;;5.80;5.37;;;26.60;47.50;;;;;;5167845;22;20466;-72
2022/08/17 04:35:23;;;;;;;5.80;5.40;;;26.60;47.50;;;;;;5071507;28;20434;-72
2022/08/17 04:37:52;;;;;;;5.70;5.30;;;26.50;47.50;;;;;;5095422;28;20432;-72
2022/08/17 04:43:11;;;;;;;5.47;4.90;;;26.50;47.40;;;;;;5080467;28;20651;-72
2022/08/17 04:45:41;;;;;;;5.63;5.23;;;26.50;47.50;;;;;;5083752;28;20450;-72
2022/08/17 04:48:25;;;;;;;5.60;5.20;;;26.50;47.50;;;;;;5074105;28;20468;-72
2022/08/17 04:51:08;;;;;;;6.33;5.10;;;26.50;47.50;;;;;;5075328;28;20444;-72
2022/08/17 04:53:37;;;;;;;5.23;4.83;;;26.50;47.50;;;;;;5071345;28;20471;-72
2022/08/17 04:56:05;;;;;;;6.50;6.00;;;26.50;47.50;;;;;;5069412;28;20425;-72
2022/08/17 04:58:34;;;;;;;5.57;5.17;;;26.50;47.50;;;;;;5069132;28;20485;-72
2022/08/17 05:01:02;;;;;;;6.10;5.63;;;26.50;47.50;;;;;;5096517;28;20448;-72
2022/08/17 05:03:31;;;;;;;5.60;5.07;;;26.50;47.20;;;;;;5078583;28;20983;-72
2022/08/17 05:05:59;;;;;;;6.17;5.63;;;26.50;47.50;;;;;;5065571;28;20840;-72
2022/08/17 05:08:29;;;;;;;5.90;5.30;;;26.50;47.40;;;;;;5080593;28;20473;-72
2022/08/17 05:10:59;;;;;;;5.40;5.00;;;26.50;47.30;;;;;;5099684;28;20448;-72
2022/08/17 05:13:29;;;;;;;6.40;5.80;;;26.50;47.40;;;;;;5081359;28;20891;-72
2022/08/17 05:15:59;;;;;;;6.07;5.40;;;26.50;47.40;;;;;;5081826;28;20437;-72
2022/08/17 05:18:28;;;;;;;6.40;5.90;;;26.50;47.40;;;;;;5085792;28;20982;-72
2022/08/17 05:20:57;;;;;;;5.87;5.30;;;26.40;47.30;;;;;;5078544;28;20474;-71
2022/08/17 05:23:28;;;;;;;5.37;4.87;;;26.50;47.40;;;;;;5076129;28;20456;-72
2022/08/17 05:26:13;;;;;;;6.40;5.87;;;26.40;47.30;;;;;;5086817;28;20950;-72
2022/08/17 05:28:56;;;;;;;5.47;5.07;;;26.40;47.30;;;;;;5078324;28;20484;-72
2022/08/17 05:31:30;;;;;;;5.27;4.87;;;26.40;47.30;;;;;;5072844;28;21011;-72
2022/08/17 05:33:59;;;;;;;5.50;5.10;;;26.40;47.20;;;;;;5076722;28;20480;-72
2022/08/17 05:36:28;;;;;;;5.60;5.10;;;26.40;47.20;;;;;;5069852;28;20437;-72
2022/08/17 05:39:12;;;;;;;6.50;5.97;;;26.40;47.20;;;;;;5072794;28;20534;-72
2022/08/17 05:41:47;;;;;;;5.80;5.40;;;26.40;47.10;;;;;;5073142;28;20464;-72
2022/08/17 05:44:17;;;;;;;6.00;5.50;;;26.40;47.20;;;;;;5072366;28;20444;-71
2022/08/17 05:46:49;;;;;;;5.57;5.10;;;26.40;47.10;;;;;;5078652;28;20445;-72
2022/08/17 05:49:23;;;;;;;5.57;5.13;;;26.40;47.00;;;;;;5067809;28;20442;-73
2022/08/17 05:52:09;;;;;;;5.63;5.13;;;26.40;47.10;;;;;;5085356;28;20514;-71
2022/08/17 05:54:51;;;;;;;5.87;5.40;;;26.40;47.20;;;;;;5077109;28;20866;-71
2022/08/17 05:57:42;;;;;;;6.33;5.80;;;26.40;47.10;;;;;;5088340;28;20506;-71
2022/08/17 06:00:25;;;;;;;6.63;5.60;;;26.40;47.00;;;;;;5073131;28;20822;-72
2022/08/17 06:03:10;;;;;;;5.93;5.53;;;26.40;47.20;;;;;;5070458;28;20464;-72
2022/08/17 06:05:54;;;;;;;6.30;5.73;;;26.40;47.20;;;;;;5071690;28;20447;-72
2022/08/17 06:08:31;;;;;;;5.50;5.20;;;26.40;47.20;;;;;;5076839;28;20487;-69
2022/08/17 06:11:08;;;;;;;6.00;5.50;;;26.30;47.00;;;;;;5079884;28;20484;-72
2022/08/17 06:13:50;;;;;;;6.07;5.47;;;26.30;47.10;;;;;;5073272;28;21041;-71
2022/08/17 06:16:25;;;;;;;5.80;5.27;;;26.30;47.20;;;;;;5101677;28;20826;-72
2022/08/17 06:19:05;;;;;;;4.90;4.60;;;26.30;47.20;;;;;;5074431;28;20468;-71
2022/08/17 06:21:39;;;;;;;4.63;4.33;;;26.30;47.30;;;;;;5084402;28;21040;-72
2022/08/17 06:24:17;;;;;;;5.47;4.37;;;26.30;47.30;;;;;;5081168;28;20948;-72
2022/08/17 06:26:46;;;;;;;6.17;5.70;;;26.30;47.40;;;;;;5064934;28;20481;-71
2022/08/17 06:29:28;;;;;;;5.77;5.30;;;26.30;47.20;;;;;;5081069;28;20808;-72
2022/08/17 06:31:56;;;;;;;5.60;5.20;;;26.30;47.20;;;;;;5072606;28;20525;-72
2022/08/17 06:34:25;;;;;;;7.53;6.00;;;26.40;47.20;;;;;;5073431;28;20988;-72
2022/08/17 06:37:02;;;;;;;5.00;4.60;;;26.30;47.10;;;;;;5083254;28;20444;-71
2022/08/17 06:39:44;;;;;;;5.00;4.60;;;26.30;47.20;;;;;;5079282;28;20512;-71
2022/08/17 06:42:25;;;;;;;6.33;5.83;;;26.30;47.20;;;;;;5079740;28;20468;-72
2022/08/17 06:45:17;;;;;;;6.47;5.87;;;26.30;47.20;;;;;;5097448;28;20460;-71
2022/08/17 06:47:49;;;;;;;5.53;5.13;;;26.30;47.20;;;;;;5079439;28;20476;-72
2022/08/17 06:50:26;;;;;;;7.60;5.30;;;26.30;47.20;;;;;;5072148;28;20539;-71
2022/08/17 06:53:03;;;;;;;6.27;5.77;;;26.30;47.20;;;;;;5086556;28;20468;-71
2022/08/17 06:55:44;;;;;;;6.20;5.70;;;26.30;47.20;;;;;;5072291;28;20473;-72
2022/08/17 06:58:13;;;;;;;6.40;5.90;;;26.30;47.20;;;;;;5077315;28;20947;-72
2022/08/17 07:00:47;;;;;;;6.03;5.53;;;26.30;47.30;;;;;;5100364;28;20948;-72
2022/08/17 07:03:26;;;;;;;6.50;6.00;;;26.30;47.30;;;;;;5062076;28;20882;-71
2022/08/17 07:06:00;;;;;;;6.40;5.80;;;26.30;47.30;;;;;;5074997;28;20460;-72
2022/08/17 07:08:38;;;;;;;6.00;5.60;;;26.30;47.20;;;;;;5073034;28;20464;-71
2022/08/17 07:11:13;;;;;;;5.60;5.20;;;26.30;47.30;;;;;;5080357;28;20437;-72
2022/08/17 07:13:48;;;;;;;6.77;6.17;;;26.30;47.20;;;;;;5068111;28;20498;-72
2022/08/17 07:16:26;;;;;;;6.73;6.23;;;26.30;47.20;;;;;;5097898;28;20452;-71
2022/08/17 07:18:56;;;;;;;6.37;5.87;;;26.30;47.20;;;;;;5068790;28;20449;-72
2022/08/17 07:21:43;;;;;;;6.80;6.30;;;26.30;47.20;;;;;;5096588;28;20467;-72
2022/08/17 07:24:34;;;;;;;6.30;5.80;;;26.30;47.20;;;;;;5070790;28;20476;-72
2022/08/17 07:27:06;;;;;;;6.20;5.70;;;26.30;47.20;;;;;;5067888;28;20510;-73
2022/08/17 07:29:40;;;;;;;6.40;6.00;;;26.30;47.20;;;;;;5070665;28;20518;-71
2022/08/17 07:32:17;;;;;;;7.00;6.40;;;26.30;47.20;;;;;;5081282;28;20563;-72
2022/08/17 07:35:13;;;;;;;6.10;5.70;;;26.20;47.20;;;;;;5069819;28;20519;-71
2022/08/17 07:37:47;;;;;;;7.00;6.50;;;26.20;47.20;;;;;;5075903;28;20434;-71
2022/08/17 07:40:25;;;;;;;7.10;6.53;;;26.20;47.20;;;;;;5078362;28;20474;-71
2022/08/17 07:43:14;;;;;;;6.50;6.00;;;26.20;47.30;;;;;;5068434;28;20891;-71
2022/08/17 07:48:57;;;;;;;7.07;6.33;;;26.20;47.20;;;;;;5085880;28;20480;-71
2022/08/17 07:51:31;;;;;;;6.10;5.70;;;26.20;47.40;;;;;;5069457;28;20461;-72
2022/08/17 07:54:02;;;;;;;5.70;5.27;;;26.20;47.40;;;;;;5072080;28;20473;-71
2022/08/17 07:56:46;;;;;;;6.43;5.93;;;26.20;47.50;;;;;;5084039;28;20964;-72
2022/08/17 07:59:18;;;;;;;6.63;5.90;;;26.20;47.50;;;;;;5073546;28;20473;-71
2022/08/17 08:02:20;;;;;;;6.20;5.70;;;26.20;47.60;;;;;;5080554;28;20451;-71
2022/08/17 08:05:05;;;;;;;5.83;5.33;;;26.20;47.70;;;;;;5066420;28;21021;-72
2022/08/17 08:07:42;;;;;;;6.87;6.37;;;26.20;47.80;;;;;;5096505;28;20457;-71
2022/08/17 08:10:15;;;;;;;6.67;5.80;;;26.20;47.70;;;;;;5082190;28;20906;-72
2022/08/17 08:12:45;;;;;;;6.90;6.40;;;26.20;47.70;;;;;;5108791;28;20487;-72
2022/08/17 08:15:17;;;;;;;6.17;5.67;;;26.10;47.60;;;;;;5074365;28;20634;-72
2022/08/17 08:17:50;;;;;;;7.60;7.00;;;26.20;47.70;;;;;;5072250;28;20951;-71
2022/08/17 08:20:30;;;;;;;6.13;5.73;;;26.20;47.70;;;;;;5069309;28;20441;-72
2022/08/17 08:23:37;;;;;;;6.20;5.70;;;26.20;47.70;;;;;;5062469;28;20473;-72
2022/08/17 08:26:15;;;;;;;6.73;6.30;;;26.20;47.80;;;;;;5074909;28;20437;-71
2022/08/17 08:28:52;;;;;;;6.33;5.83;;;26.20;47.60;;;;;;5065007;28;20480;-72
2022/08/17 08:31:25;;;;;;;6.30;5.80;;;26.10;47.70;;;;;;5065739;28;20610;-72
2022/08/17 08:34:09;;;;;;;6.60;6.10;;;26.10;47.70;;;;;;5066474;28;20818;-71
2022/08/17 08:37:12;;;;;;;7.70;7.00;;;26.10;47.80;;;;;;5072814;28;21294;-71
2022/08/17 08:39:59;;;;;;;7.57;6.97;;;26.10;48.30;;;;;;5081656;28;20203;-71
2022/08/17 08:42:37;;;;;;;6.67;6.17;;;26.10;48.20;;;;;;5076537;28;20559;-71
2022/08/17 08:45:12;;;;;;;7.50;6.90;;;26.10;48.20;;;;;;5094761;28;20456;-72
2022/08/17 08:48:04;;;;;;;6.83;6.30;;;26.10;48.10;;;;;;5099962;28;20459;-72
2022/08/17 08:50:46;;;;;;;7.40;6.70;;;26.10;48.20;;;;;;5070364;28;20449;-72
2022/08/17 08:53:29;;;;;;;8.07;7.37;;;26.10;48.30;;;;;;5074473;28;20272;-72
2022/08/17 08:56:04;;;;;;;8.77;7.97;;;26.00;48.20;;;;;;5086925;28;20461;-70
2022/08/17 08:58:39;;;;;;;7.90;7.17;;;26.00;48.20;;;;;;5072012;28;20471;-71
2022/08/17 09:01:18;;;;;;;10.43;7.17;;;26.00;48.20;;;;;;5078743;28;20433;-72
2022/08/17 09:04:08;;;;;;;6.97;6.47;;;26.00;48.20;;;;;;5079172;28;20476;-72
2022/08/17 09:07:05;;;;;;;7.60;6.90;;;26.00;48.10;;;;;;5087300;28;20531;-72
2022/08/17 09:09:45;;;;;;;8.60;7.80;;;26.00;48.10;;;;;;5082202;28;20820;-72
2022/08/17 09:12:24;;;;;;;8.10;6.43;;;26.10;48.10;;;;;;5068592;28;20468;-72
2022/08/17 09:15:01;;;;;;;7.80;7.23;;;26.00;48.00;;;;;;5074244;28;20451;-71
2022/08/17 09:17:37;;;;;;;7.87;7.27;;;26.00;48.10;;;;;;5083486;28;20472;-72
2022/08/17 09:20:15;;;;;;;8.50;7.80;;;26.00;48.10;;;;;;5073348;28;20448;-71
2022/08/17 09:23:02;;;;;;;8.27;7.20;;;26.00;47.90;;;;;;5067548;28;20679;-73
2022/08/17 09:25:42;;;;;;;7.60;7.00;;;26.00;48.30;;;;;;5078109;28;20425;-72
2022/08/17 09:28:19;;;;;;;7.27;6.67;;;26.00;48.60;;;;;;5076595;28;20475;-71
2022/08/17 09:30:51;;;;;;;7.90;7.13;;;26.00;48.70;;;;;;5082937;28;20421;-72
2022/08/17 09:33:25;;;;;;;7.00;6.50;;;26.00;48.90;;;;;;5067709;28;20457;-72
2022/08/17 09:35:59;;;;;;;7.90;7.30;;;26.00;49.10;;;;;;5070982;28;20837;-72
2022/08/17 09:38:42;;;;;;;7.90;7.30;;;26.00;49.20;;;;;;5069155;28;20992;-72
2022/08/17 09:41:17;;;;;;;8.37;7.60;;;26.00;49.40;;;;;;5069363;28;20460;-71
2022/08/17 09:43:52;;;;;;;8.10;7.30;;;26.00;49.30;;;;;;5071501;28;20486;-72
2022/08/17 09:46:26;;;;;;;8.07;7.37;;;26.00;49.40;;;;;;5063518;28;20421;-72
2022/08/17 09:49:02;;;;;;;7.50;6.90;;;26.00;49.40;;;;;;5070201;28;20465;-72
2022/08/17 09:51:35;;;;;;;7.90;7.20;;;26.00;49.40;;;;;;5076378;28;20851;-72
2022/08/17 09:54:04;;;;;;;7.60;7.10;;;26.00;49.50;;;;;;5071362;28;20461;-71
2022/08/17 09:57:03;;;;;;;7.33;6.73;;;25.90;49.50;;;;;;5080399;28;20534;-71
2022/08/17 10:00:14;;;;;;;7.33;6.60;;;25.90;49.50;;;;;;5084624;28;20676;-72
2022/08/17 10:03:03;;;;;;;7.37;6.87;;;25.90;49.60;;;;;;5071104;28;20534;-73
2022/08/17 10:05:37;;;;;;;7.07;6.53;;;25.90;49.50;;;;;;5062516;28;20440;-73
2022/08/17 10:08:12;;;;;;;7.33;6.83;;;25.90;49.40;;;;;;5080119;28;20484;-72
2022/08/17 10:10:51;;;;;;;7.90;7.30;;;25.90;49.70;;;;;;5078391;28;20786;-72
2022/08/17 10:13:34;;;;;;;8.30;7.60;;;25.90;49.60;;;;;;5073048;28;20482;-71
2022/08/17 10:16:09;;;;;;;7.93;7.30;;;25.90;49.70;;;;;;5082193;28;21025;-72
2022/08/17 10:18:47;;;;;;;8.67;7.87;;;25.90;49.70;;;;;;5089487;28;20559;-72
2022/08/17 10:27:05;;;;;;;8.17;7.47;;;25.90;49.70;;;;;;5088543;28;20440;-72
2022/08/17 10:29:40;;;;;;;8.20;7.50;;;25.90;49.80;;;;;;5071906;28;21034;-72
2022/08/17 10:32:26;;;;;;;8.20;7.60;;;25.90;49.90;;;;;;5065999;23;20800;-64
2022/08/17 10:35:17;;;;;;;8.57;7.93;;;25.90;49.80;;;;;;5057554;28;20490;-64
2022/08/17 10:38:06;;;;;;;7.40;6.80;;;25.90;50.00;;;;;;5064435;28;20442;-64
2022/08/17 10:40:44;;;;;;;8.63;7.83;;;25.90;49.80;;;;;;5045964;28;20437;-64
2022/08/17 10:43:28;;;;;;;7.67;6.97;;;25.90;49.90;;;;;;5053708;28;20487;-64
2022/08/17 10:46:06;;;;;;;8.60;7.23;;;25.90;50.00;;;;;;5065363;28;20467;-64
2022/08/17 10:49:28;;;;;;;9.00;8.30;;;25.90;50.10;;;;;;5062929;28;20462;-64
2022/08/17 10:51:59;;;;;;;7.90;7.30;;;25.90;50.70;;;;;;5062312;28;20465;-64
2022/08/17 10:54:41;;;;;;;8.07;7.47;;;25.90;50.30;;;;;;5090155;28;20417;-64
2022/08/17 10:57:38;;;;;;;9.07;8.37;;;25.90;50.50;;;;;;5067344;28;20476;-64
2022/08/17 11:00:16;;;;;;;8.70;7.97;;;25.90;50.50;;;;;;5086518;28;20456;-64
2022/08/17 11:02:52;;;;;;;9.60;8.90;;;25.90;50.70;;;;;;5051692;28;20450;-64
2022/08/17 11:05:40;;;;;;;7.73;7.13;;;25.80;50.50;;;;;;5042024;28;20465;-63
2022/08/17 11:08:38;;;;;;;9.60;8.90;;;25.90;50.60;;;;;;5077147;28;20466;-64
2022/08/17 11:11:33;;;;;;;9.70;8.90;;;25.90;50.90;;;;;;5051053;28;20438;-64
2022/08/17 11:14:17;;;;;;;8.57;7.97;;;25.80;50.70;;;;;;5064799;28;20485;-64
2022/08/17 11:16:58;;;;;;;10.27;9.37;;;25.80;50.80;;;;;;5056321;28;20481;-64
2022/08/17 11:20:00;;;;;;;9.53;8.73;;;25.80;50.70;;;;;;5060332;28;20507;-64
2022/08/17 11:22:56;;;;;;;9.53;8.73;;;25.80;50.80;;;;;;5054007;28;20463;-64
2022/08/17 11:25:38;;;;;;;9.77;8.77;;;25.80;50.80;;;;;;5061861;28;20461;-63
2022/08/17 11:28:13;;;;;;;10.17;9.37;;;25.80;50.60;;;;;;5065556;28;20898;-65
2022/08/17 11:30:50;;;;;;;8.77;8.07;;;25.80;50.50;;;;;;5054994;28;20493;-65
2022/08/17 11:34:02;;;;;;;10.47;9.60;;;25.80;50.50;;;;;;5046654;28;20500;-64
2022/08/17 11:37:20;;;;;;;10.30;9.30;;;25.80;50.90;;;;;;5024876;28;20493;-64
2022/08/17 11:40:06;;;;;;;9.30;8.60;;;25.80;50.70;;;;;;5047453;28;20893;-64
2022/08/17 11:42:50;;;;;;;9.97;9.17;;;25.80;50.80;;;;;;5077814;28;20450;-64
2022/08/17 11:45:40;;;;;;;9.03;8.33;;;25.80;50.80;;;;;;5055899;28;20988;-64
2022/08/17 11:54:32;;;;;;;10.00;9.20;;;25.80;50.80;;;;;;5051687;28;20462;-64
2022/08/17 11:57:40;;;;;;;9.53;8.70;;;25.80;50.60;;;;;;5050572;28;20489;-64
2022/08/17 12:00:40;;;;;;;9.20;8.50;;;25.80;50.80;;;;;;5078043;28;20442;-64
2022/08/17 12:03:42;;;;;;;10.90;9.90;;;25.80;50.70;;;;;;5071565;28;20485;-64
2022/08/17 12:06:55;;;;;;;10.17;9.30;;;25.80;51.40;;;;;;5076421;28;20470;-64
2022/08/17 12:09:28;;;;;;;10.10;9.30;;;25.80;51.20;;;;;;4951097;28;20442;-63
2022/08/17 12:12:00;;;;;;;10.47;9.57;;;25.80;51.10;;;;;;5044051;28;20960;-63
2022/08/17 12:14:48;;;;;;;9.80;8.90;;;25.80;51.00;;;;;;5057578;28;20782;-63
2022/08/17 12:17:38;;;;;;;10.40;9.60;;;25.80;51.20;;;;;;5061031;28;20450;-63
2022/08/17 12:20:20;;;;;;;9.77;8.97;;;25.80;51.10;;;;;;5061229;28;20437;-64
2022/08/17 12:22:59;;;;;;;9.93;9.23;;;25.80;51.10;;;;;;5081029;28;20994;-64
2022/08/17 12:25:35;;;;;;;10.47;9.67;;;25.80;51.40;;;;;;5063556;28;20963;-63
2022/08/17 12:28:05;;;;;;;11.40;10.50;;;25.80;51.30;;;;;;5076383;28;20879;-64
2022/08/17 12:30:36;;;;;;;10.33;9.50;;;25.70;51.40;;;;;;5057114;28;20434;-64
2022/08/17 12:33:13;;;;;;;9.70;8.93;;;25.70;51.20;;;;;;5052138;28;20537;-64
2022/08/17 12:36:02;;;;;;;10.80;9.87;;;25.70;51.00;;;;;;5046701;28;20501;-64
2022/08/17 12:38:33;;;;;;;10.53;9.63;;;25.70;51.30;;;;;;5074308;28;20472;-63
2022/08/17 12:41:25;;;;;;;10.20;9.40;;;25.70;51.10;;;;;;5053126;28;21160;-63
2022/08/17 12:44:00;;;;;;;10.57;9.77;;;25.70;51.30;;;;;;5057661;28;20472;-63
2022/08/17 12:46:33;;;;;;;11.83;10.93;;;25.70;51.30;;;;;;5057695;28;20429;-63
2022/08/17 12:49:29;;;;;;;11.13;10.23;;;25.70;51.50;;;;;;5065193;28;21002;-63
2022/08/17 12:52:06;;;;;;;10.40;9.60;;;25.70;51.40;;;;;;5049890;28;20449;-63
2022/08/17 12:54:41;;;;;;;11.00;10.20;;;25.70;51.40;;;;;;5057779;28;20437;-63
2022/08/17 12:57:14;;;;;;;10.77;9.97;;;25.70;51.50;;;;;;5067744;28;20461;-63
2022/08/17 12:59:46;;;;;;;10.73;9.87;;;25.70;51.60;;;;;;5075327;28;20963;-63
2022/08/17 13:02:28;;;;;;;10.77;9.80;;;25.70;51.80;;;;;;5072768;28;20456;-63
2022/08/17 13:05:00;;;;;;;11.00;10.10;;;25.70;51.60;;;;;;5037435;28;20442;-64
2022/08/17 13:07:34;;;;;;;10.27;9.37;;;25.70;51.60;;;;;;5050650;28;20868;-63
2022/08/17 13:10:03;;;;;;;11.30;10.40;;;25.70;51.30;;;;;;5052772;28;20449;-63
2022/08/17 13:12:35;;;;;;;10.87;9.97;;;25.70;51.40;;;;;;5067427;28;20465;-63
2022/08/17 13:15:04;;;;;;;11.67;10.57;;;25.70;51.40;;;;;;5086378;28;20421;-64
2022/08/17 13:17:35;;;;;;;10.00;9.20;;;25.70;51.40;;;;;;5056311;28;21047;-64
2022/08/17 13:20:14;;;;;;;10.53;9.80;;;25.70;51.20;;;;;;5070613;28;20534;-63
2022/08/17 13:22:44;;;;;;;10.13;9.23;;;25.70;51.50;;;;;;5069875;28;20461;-63
2022/08/17 13:25:16;;;;;;;11.47;10.47;;;25.70;51.40;;;;;;5037902;28;20471;-64
2022/08/17 13:27:47;;;;;;;11.10;10.30;;;25.70;51.50;;;;;;5089203;28;20940;-63
2022/08/17 13:30:22;;;;;;;10.90;10.00;;;25.70;51.50;;;;;;5046513;28;20529;-63
2022/08/17 13:32:52;;;;;;;10.50;9.60;;;25.70;51.40;;;;;;5069430;28;20461;-63
2022/08/17 13:35:53;;;;;;;9.93;9.23;;;25.70;51.20;;;;;;5066917;28;20540;-64
2022/08/17 13:38:39;;;;;;;9.57;8.87;;;25.70;51.00;;;;;;5063146;28;20465;-63
2022/08/17 13:41:07;;;;;;;9.40;8.70;;;25.70;51.00;;;;;;5051759;28;20446;-66
2022/08/17 13:43:49;;;;;;;11.30;10.30;;;25.70;50.80;;;;;;5053070;28;20524;-65
2022/08/17 13:46:20;;;;;;;11.43;10.53;;;25.70;50.80;;;;;;5054503;28;20491;-65
2022/08/17 13:48:59;;;;;;;11.60;10.70;;;25.80;50.90;;;;;;5053773;28;20670;-65
2022/08/17 13:51:33;;;;;;;12.10;11.20;;;25.80;50.90;;;;;;5059962;28;20449;-65
2022/08/17 13:54:15;;;;;;;12.10;11.10;;;25.90;51.10;;;;;;5081971;28;20565;-65
2022/08/17 13:57:02;;;;;;;12.20;11.30;;;25.90;51.20;;;;;;5059220;28;20810;-65
2022/08/17 13:59:42;;;;;;;13.70;12.60;;;25.90;51.10;;;;;;5059980;28;20789;-64
2022/08/17 14:02:24;;;;;;;13.43;12.33;;;25.90;51.20;;;;;;5064711;28;20450;-65
2022/08/17 14:04:56;;;;;;;13.03;12.03;;;25.90;51.40;;;;;;5065640;28;20961;-64